Meath Environmental Platform

Observations

Time Sensor AQI SAQ Temp °C Hum % Pres Pa CO μg/m³ H₂S μg/m³ NO μg/m³ NO₂ μg/m³ O₃ μg/m³ SO₂ μg/m³ CO₂e PPM VOC PPM PM1 μg/m³ PM2.5 μg/m³ PM4 μg/m³ PM10 μg/m³ TPS µm
Wednesday 12 August 2026
03:40 Trim Market St 2 19.3 65 57,249 0.05 0 1.26 32.5 58.02 0 2.14 4.26 6.88
03:39 Trim Patrick St 2 18.6 69 37,964 0.01 3.09 1.29 25.03 42.51 0 4.57 8.8 9.68
03:38 Trim Patrick St 2 18.6 70 37,799 0.02 2.72 1.28 13.66 39.91 0 4.57 8.78 9.66
03:38 Trim Market St 2 19.3 65 57,264 0.06 0 1.27 16.91 61.87 0 2.14 4.27 6.22
03:37 Trim Patrick St 2 18.6 69 37,578 0.02 2.51 1.31 14.76 55.56 0 5.43 8.84 9.72
03:37 Trim Market St 2 19.3 65 57,275 0.04 0 1.26 17.95 60.59 0 0 2.79 4.25
03:36 Trim Patrick St 2 18.6 70 37,285 0.01 2.51 1.28 25.02 48.84 0 5.43 10.22 11.25
03:36 Trim Market St 2 19.3 65 57,284 0.04 0 1.26 13.26 65.32 0 2.14 4.76 7.53
03:35 Trim Patrick St 2 18.6 69 36,892 0.01 1.07 1.29 13.89 37.69 0 5.43 9.52 10.48
03:35 Trim Market St 2 19.3 65 57,292 0.05 0 1.31 14.04 64.11 0 2.14 4.27 6.22
03:34 Trim Patrick St 2 18.6 69 36,369 0.01 3.72 1.3 25.87 49.11 0 5.43 9.56 10.52
03:34 Trim Market St 2 19.3 65 57,303 0.05 0 1.32 14.32 61.05 0 2.14 4.27 7.53
03:33 Trim Patrick St 2 18.6 69 35,672 0.01 1.91 1.3 12.21 35.13 0 6.29 9.55 10.51
03:33 Trim Market St 2 19.3 65 57,307 0.04 0 1.3 17.63 59.49 0 2.85 4.27 6.22
03:32 Trim Patrick St 2 18.6 67 34,744 0.01 4.74 1.34 33.96 54.67 0 4.57 9.73 10.7
03:32 Trim Market St 2 19.3 65 57,315 0.05 0 1.33 13.64 63.41 0 1.43 4.27 6.22
03:31 Trim Patrick St 2 18.6 70 33,504 0.01 3.38 1.29 13.69 46.42 0 4.57 8.79 9.67
03:30 Trim Patrick St 2 18.6 69 31,851 0 4.35 1.29 17.99 41.21 0 4.57 9.53 10.48
03:30 Trim Market St 2 19.3 65 57,338 0.05 0 1.3 13.5 68.12 0 2.14 4.27 7.53
03:28 Trim Patrick St 2 18.6 67 26,712 0.01 5.45 1.36 31.06 51.21 0 4.57 8.96 9.85